sensor_id;sensor_type;location;lat;lon;timestamp;P1;durP1;ratioP1;P2;durP2;ratioP2
20318;SDS011;10317;47.254;11.314;2022-12-17T00:00:21;53.13;;;28.77;;
20318;SDS011;10317;47.254;11.314;2022-12-17T00:03:07;47.22;;;26.83;;
20318;SDS011;10317;47.254;11.314;2022-12-17T00:05:53;50.33;;;28.23;;
20318;SDS011;10317;47.254;11.314;2022-12-17T00:08:37;46.72;;;27.67;;
20318;SDS011;10317;47.254;11.314;2022-12-17T00:11:21;42.53;;;24.80;;
20318;SDS011;10317;47.254;11.314;2022-12-17T00:14:05;47.15;;;25.80;;
20318;SDS011;10317;47.254;11.314;2022-12-17T00:16:49;48.83;;;28.25;;
20318;SDS011;10317;47.254;11.314;2022-12-17T00:19:33;44.63;;;26.02;;
20318;SDS011;10317;47.254;11.314;2022-12-17T00:22:17;47.33;;;27.55;;
20318;SDS011;10317;47.254;11.314;2022-12-17T00:25:01;48.85;;;27.73;;
20318;SDS011;10317;47.254;11.314;2022-12-17T00:27:46;46.97;;;26.10;;
20318;SDS011;10317;47.254;11.314;2022-12-17T00:30:30;50.35;;;28.08;;
20318;SDS011;10317;47.254;11.314;2022-12-17T00:33:14;44.53;;;25.65;;
20318;SDS011;10317;47.254;11.314;2022-12-17T00:35:58;54.72;;;29.15;;
20318;SDS011;10317;47.254;11.314;2022-12-17T00:38:43;50.03;;;27.55;;
20318;SDS011;10317;47.254;11.314;2022-12-17T00:41:28;45.17;;;26.25;;
20318;SDS011;10317;47.254;11.314;2022-12-17T00:44:12;50.95;;;28.67;;
20318;SDS011;10317;47.254;11.314;2022-12-17T00:46:57;49.88;;;27.92;;
20318;SDS011;10317;47.254;11.314;2022-12-17T00:49:41;49.25;;;27.58;;
20318;SDS011;10317;47.254;11.314;2022-12-17T00:52:25;45.70;;;26.20;;
20318;SDS011;10317;47.254;11.314;2022-12-17T00:55:10;44.08;;;25.80;;
20318;SDS011;10317;47.254;11.314;2022-12-17T00:57:55;43.45;;;25.65;;
20318;SDS011;10317;47.254;11.314;2022-12-17T01:00:39;42.58;;;24.85;;
20318;SDS011;10317;47.254;11.314;2022-12-17T01:03:24;46.80;;;25.90;;
20318;SDS011;10317;47.254;11.314;2022-12-17T01:06:09;47.08;;;27.00;;
20318;SDS011;10317;47.254;11.314;2022-12-17T01:08:53;41.58;;;24.92;;
20318;SDS011;10317;47.254;11.314;2022-12-17T01:11:38;39.25;;;24.55;;
20318;SDS011;10317;47.254;11.314;2022-12-17T01:14:23;45.20;;;25.65;;
20318;SDS011;10317;47.254;11.314;2022-12-17T01:17:08;45.65;;;26.20;;
20318;SDS011;10317;47.254;11.314;2022-12-17T01:19:52;45.53;;;26.15;;
20318;SDS011;10317;47.254;11.314;2022-12-17T01:22:36;43.00;;;26.83;;
20318;SDS011;10317;47.254;11.314;2022-12-17T01:25:20;48.25;;;27.77;;
20318;SDS011;10317;47.254;11.314;2022-12-17T01:28:06;51.00;;;26.45;;
20318;SDS011;10317;47.254;11.314;2022-12-17T01:30:50;49.83;;;27.17;;
20318;SDS011;10317;47.254;11.314;2022-12-17T01:33:34;50.17;;;28.60;;
20318;SDS011;10317;47.254;11.314;2022-12-17T01:36:18;45.55;;;27.13;;
20318;SDS011;10317;47.254;11.314;2022-12-17T01:39:02;45.92;;;25.27;;
20318;SDS011;10317;47.254;11.314;2022-12-17T01:41:47;49.72;;;27.20;;
20318;SDS011;10317;47.254;11.314;2022-12-17T01:47:25;48.05;;;26.75;;
20318;SDS011;10317;47.254;11.314;2022-12-17T01:50:12;50.90;;;27.60;;
20318;SDS011;10317;47.254;11.314;2022-12-17T01:52:58;46.65;;;25.83;;
20318;SDS011;10317;47.254;11.314;2022-12-17T01:55:45;50.88;;;28.73;;
20318;SDS011;10317;47.254;11.314;2022-12-17T01:58:30;49.85;;;28.10;;
20318;SDS011;10317;47.254;11.314;2022-12-17T02:01:15;50.05;;;26.13;;
20318;SDS011;10317;47.254;11.314;2022-12-17T02:04:00;48.70;;;28.45;;
20318;SDS011;10317;47.254;11.314;2022-12-17T02:06:47;44.17;;;25.52;;
20318;SDS011;10317;47.254;11.314;2022-12-17T02:13:12;45.28;;;25.40;;
20318;SDS011;10317;47.254;11.314;2022-12-17T02:22:33;47.72;;;27.15;;
20318;SDS011;10317;47.254;11.314;2022-12-17T02:28:23;46.53;;;26.60;;
20318;SDS011;10317;47.254;11.314;2022-12-17T02:31:08;49.70;;;28.63;;
20318;SDS011;10317;47.254;11.314;2022-12-17T02:33:53;49.80;;;28.08;;
20318;SDS011;10317;47.254;11.314;2022-12-17T02:36:38;48.65;;;26.67;;
20318;SDS011;10317;47.254;11.314;2022-12-17T02:39:22;46.03;;;26.98;;
20318;SDS011;10317;47.254;11.314;2022-12-17T02:42:06;49.45;;;27.85;;
20318;SDS011;10317;47.254;11.314;2022-12-17T02:44:50;46.47;;;27.45;;
20318;SDS011;10317;47.254;11.314;2022-12-17T02:47:35;46.42;;;26.50;;
20318;SDS011;10317;47.254;11.314;2022-12-17T02:50:20;51.33;;;26.45;;
20318;SDS011;10317;47.254;11.314;2022-12-17T02:53:04;48.97;;;27.60;;
20318;SDS011;10317;47.254;11.314;2022-12-17T02:55:49;44.58;;;25.77;;
20318;SDS011;10317;47.254;11.314;2022-12-17T02:58:34;49.65;;;28.05;;
20318;SDS011;10317;47.254;11.314;2022-12-17T03:01:18;51.70;;;27.55;;
20318;SDS011;10317;47.254;11.314;2022-12-17T03:04:02;50.42;;;28.02;;
20318;SDS011;10317;47.254;11.314;2022-12-17T03:06:46;49.53;;;29.15;;
20318;SDS011;10317;47.254;11.314;2022-12-17T03:09:30;46.38;;;27.15;;
20318;SDS011;10317;47.254;11.314;2022-12-17T03:12:14;47.47;;;27.23;;
20318;SDS011;10317;47.254;11.314;2022-12-17T03:14:58;47.75;;;28.42;;
20318;SDS011;10317;47.254;11.314;2022-12-17T03:17:44;50.50;;;28.40;;
20318;SDS011;10317;47.254;11.314;2022-12-17T03:20:28;49.38;;;28.75;;
20318;SDS011;10317;47.254;11.314;2022-12-17T03:23:13;53.08;;;28.73;;
20318;SDS011;10317;47.254;11.314;2022-12-17T03:25:57;50.83;;;29.60;;
20318;SDS011;10317;47.254;11.314;2022-12-17T03:28:44;55.83;;;29.77;;
20318;SDS011;10317;47.254;11.314;2022-12-17T03:31:28;53.30;;;30.20;;
20318;SDS011;10317;47.254;11.314;2022-12-17T03:34:12;54.40;;;30.67;;
20318;SDS011;10317;47.254;11.314;2022-12-17T03:36:56;54.08;;;29.67;;
20318;SDS011;10317;47.254;11.314;2022-12-17T03:39:40;49.28;;;28.63;;
20318;SDS011;10317;47.254;11.314;2022-12-17T03:42:25;54.40;;;29.48;;
20318;SDS011;10317;47.254;11.314;2022-12-17T03:45:09;53.92;;;29.27;;
20318;SDS011;10317;47.254;11.314;2022-12-17T03:48:08;45.22;;;27.45;;
20318;SDS011;10317;47.254;11.314;2022-12-17T03:50:54;50.35;;;29.40;;
20318;SDS011;10317;47.254;11.314;2022-12-17T03:53:39;47.45;;;27.63;;
20318;SDS011;10317;47.254;11.314;2022-12-17T03:56:23;47.88;;;27.92;;
20318;SDS011;10317;47.254;11.314;2022-12-17T03:59:08;51.72;;;28.45;;
20318;SDS011;10317;47.254;11.314;2022-12-17T04:01:52;52.90;;;28.60;;
20318;SDS011;10317;47.254;11.314;2022-12-17T04:04:36;52.88;;;27.77;;
20318;SDS011;10317;47.254;11.314;2022-12-17T04:07:20;49.92;;;28.17;;
20318;SDS011;10317;47.254;11.314;2022-12-17T04:10:05;49.25;;;28.48;;
20318;SDS011;10317;47.254;11.314;2022-12-17T04:12:49;58.78;;;31.88;;
20318;SDS011;10317;47.254;11.314;2022-12-17T04:15:33;54.72;;;29.10;;
20318;SDS011;10317;47.254;11.314;2022-12-17T04:18:19;48.10;;;28.25;;
20318;SDS011;10317;47.254;11.314;2022-12-17T04:21:03;53.50;;;29.55;;
20318;SDS011;10317;47.254;11.314;2022-12-17T04:23:48;50.67;;;28.48;;
20318;SDS011;10317;47.254;11.314;2022-12-17T04:26:32;51.22;;;29.45;;
20318;SDS011;10317;47.254;11.314;2022-12-17T04:29:16;55.92;;;30.83;;
20318;SDS011;10317;47.254;11.314;2022-12-17T04:32:00;53.30;;;28.75;;
20318;SDS011;10317;47.254;11.314;2022-12-17T04:34:44;54.03;;;30.33;;
20318;SDS011;10317;47.254;11.314;2022-12-17T04:37:28;56.65;;;30.17;;
20318;SDS011;10317;47.254;11.314;2022-12-17T04:40:12;51.33;;;28.83;;
20318;SDS011;10317;47.254;11.314;2022-12-17T04:42:56;55.13;;;29.08;;
20318;SDS011;10317;47.254;11.314;2022-12-17T04:45:48;56.40;;;29.08;;
20318;SDS011;10317;47.254;11.314;2022-12-17T04:48:32;52.60;;;28.60;;
20318;SDS011;10317;47.254;11.314;2022-12-17T04:51:16;54.92;;;28.95;;
20318;SDS011;10317;47.254;11.314;2022-12-17T04:54:00;52.65;;;29.48;;
20318;SDS011;10317;47.254;11.314;2022-12-17T04:56:44;54.00;;;29.27;;
20318;SDS011;10317;47.254;11.314;2022-12-17T04:59:28;51.53;;;28.00;;
20318;SDS011;10317;47.254;11.314;2022-12-17T05:02:12;52.17;;;28.08;;
20318;SDS011;10317;47.254;11.314;2022-12-17T05:04:56;50.80;;;28.23;;
20318;SDS011;10317;47.254;11.314;2022-12-17T05:07:40;52.50;;;29.05;;
20318;SDS011;10317;47.254;11.314;2022-12-17T05:10:24;54.45;;;29.50;;
20318;SDS011;10317;47.254;11.314;2022-12-17T05:13:09;53.15;;;28.67;;
20318;SDS011;10317;47.254;11.314;2022-12-17T05:15:56;50.30;;;28.67;;
20318;SDS011;10317;47.254;11.314;2022-12-17T05:18:41;55.08;;;29.73;;
20318;SDS011;10317;47.254;11.314;2022-12-17T05:21:25;53.35;;;29.75;;
20318;SDS011;10317;47.254;11.314;2022-12-17T05:24:09;51.38;;;28.27;;
20318;SDS011;10317;47.254;11.314;2022-12-17T05:26:53;53.45;;;30.30;;
20318;SDS011;10317;47.254;11.314;2022-12-17T05:29:37;53.40;;;29.10;;
20318;SDS011;10317;47.254;11.314;2022-12-17T05:32:21;51.60;;;29.83;;
20318;SDS011;10317;47.254;11.314;2022-12-17T05:35:13;52.85;;;28.95;;
20318;SDS011;10317;47.254;11.314;2022-12-17T05:38:04;50.67;;;27.90;;
20318;SDS011;10317;47.254;11.314;2022-12-17T05:40:49;52.95;;;28.65;;
20318;SDS011;10317;47.254;11.314;2022-12-17T05:43:34;51.35;;;28.30;;
20318;SDS011;10317;47.254;11.314;2022-12-17T05:46:18;52.45;;;30.00;;
20318;SDS011;10317;47.254;11.314;2022-12-17T05:49:02;51.58;;;29.10;;
20318;SDS011;10317;47.254;11.314;2022-12-17T05:51:47;53.22;;;27.92;;
20318;SDS011;10317;47.254;11.314;2022-12-17T05:54:31;55.83;;;30.83;;
20318;SDS011;10317;47.254;11.314;2022-12-17T05:57:15;51.05;;;28.30;;
20318;SDS011;10317;47.254;11.314;2022-12-17T05:59:59;53.47;;;30.98;;
20318;SDS011;10317;47.254;11.314;2022-12-17T06:02:43;50.00;;;27.95;;
20318;SDS011;10317;47.254;11.314;2022-12-17T06:05:27;51.75;;;29.27;;
20318;SDS011;10317;47.254;11.314;2022-12-17T06:08:11;55.33;;;29.85;;
20318;SDS011;10317;47.254;11.314;2022-12-17T06:10:59;58.30;;;30.63;;
20318;SDS011;10317;47.254;11.314;2022-12-17T06:13:43;57.33;;;30.25;;
20318;SDS011;10317;47.254;11.314;2022-12-17T06:16:27;56.47;;;29.58;;
20318;SDS011;10317;47.254;11.314;2022-12-17T06:19:12;54.47;;;29.27;;
20318;SDS011;10317;47.254;11.314;2022-12-17T06:21:56;56.55;;;28.60;;
20318;SDS011;10317;47.254;11.314;2022-12-17T06:24:40;53.63;;;29.23;;
20318;SDS011;10317;47.254;11.314;2022-12-17T06:27:24;55.33;;;30.10;;
20318;SDS011;10317;47.254;11.314;2022-12-17T06:30:08;56.28;;;30.85;;
20318;SDS011;10317;47.254;11.314;2022-12-17T06:33:01;54.10;;;28.52;;
20318;SDS011;10317;47.254;11.314;2022-12-17T06:35:46;56.08;;;29.48;;
20318;SDS011;10317;47.254;11.314;2022-12-17T06:38:30;50.55;;;27.90;;
20318;SDS011;10317;47.254;11.314;2022-12-17T06:41:14;50.10;;;28.15;;
20318;SDS011;10317;47.254;11.314;2022-12-17T06:44:18;51.15;;;28.08;;
20318;SDS011;10317;47.254;11.314;2022-12-17T06:47:02;51.63;;;28.90;;
20318;SDS011;10317;47.254;11.314;2022-12-17T06:49:47;48.58;;;27.70;;
20318;SDS011;10317;47.254;11.314;2022-12-17T06:52:31;50.70;;;27.92;;
20318;SDS011;10317;47.254;11.314;2022-12-17T06:55:15;52.08;;;29.02;;
20318;SDS011;10317;47.254;11.314;2022-12-17T06:57:59;54.60;;;29.35;;
20318;SDS011;10317;47.254;11.314;2022-12-17T07:00:44;55.67;;;29.65;;
20318;SDS011;10317;47.254;11.314;2022-12-17T07:03:29;48.38;;;27.23;;
20318;SDS011;10317;47.254;11.314;2022-12-17T07:06:13;50.65;;;29.58;;
20318;SDS011;10317;47.254;11.314;2022-12-17T07:08:57;55.88;;;29.23;;
20318;SDS011;10317;47.254;11.314;2022-12-17T07:11:42;50.35;;;27.58;;
20318;SDS011;10317;47.254;11.314;2022-12-17T07:14:34;54.22;;;29.70;;
20318;SDS011;10317;47.254;11.314;2022-12-17T07:17:18;50.97;;;29.13;;
20318;SDS011;10317;47.254;11.314;2022-12-17T07:20:02;50.53;;;28.58;;
20318;SDS011;10317;47.254;11.314;2022-12-17T07:22:47;58.47;;;29.20;;
20318;SDS011;10317;47.254;11.314;2022-12-17T07:25:31;52.58;;;27.20;;
20318;SDS011;10317;47.254;11.314;2022-12-17T07:28:15;54.83;;;29.20;;
20318;SDS011;10317;47.254;11.314;2022-12-17T07:30:59;46.72;;;27.80;;
20318;SDS011;10317;47.254;11.314;2022-12-17T07:33:48;55.10;;;29.75;;
20318;SDS011;10317;47.254;11.314;2022-12-17T07:36:32;53.45;;;29.65;;
20318;SDS011;10317;47.254;11.314;2022-12-17T07:39:16;51.22;;;27.85;;
20318;SDS011;10317;47.254;11.314;2022-12-17T07:42:00;56.33;;;29.60;;
20318;SDS011;10317;47.254;11.314;2022-12-17T07:44:44;50.80;;;27.90;;
20318;SDS011;10317;47.254;11.314;2022-12-17T07:47:28;55.78;;;28.63;;
20318;SDS011;10317;47.254;11.314;2022-12-17T07:50:12;53.30;;;29.08;;
20318;SDS011;10317;47.254;11.314;2022-12-17T07:53:00;55.80;;;28.42;;
20318;SDS011;10317;47.254;11.314;2022-12-17T07:55:45;53.55;;;29.98;;
20318;SDS011;10317;47.254;11.314;2022-12-17T07:58:29;46.25;;;25.85;;
20318;SDS011;10317;47.254;11.314;2022-12-17T08:01:13;47.15;;;27.65;;
20318;SDS011;10317;47.254;11.314;2022-12-17T08:04:04;46.88;;;26.90;;
20318;SDS011;10317;47.254;11.314;2022-12-17T08:06:49;46.25;;;26.50;;
20318;SDS011;10317;47.254;11.314;2022-12-17T08:09:33;50.97;;;26.85;;
20318;SDS011;10317;47.254;11.314;2022-12-17T08:12:17;49.70;;;27.23;;
20318;SDS011;10317;47.254;11.314;2022-12-17T08:15:01;47.53;;;26.33;;
20318;SDS011;10317;47.254;11.314;2022-12-17T08:17:46;46.00;;;26.15;;
20318;SDS011;10317;47.254;11.314;2022-12-17T08:20:30;50.17;;;29.35;;
20318;SDS011;10317;47.254;11.314;2022-12-17T08:23:14;53.72;;;27.98;;
20318;SDS011;10317;47.254;11.314;2022-12-17T08:25:58;58.53;;;31.05;;
20318;SDS011;10317;47.254;11.314;2022-12-17T08:28:42;58.58;;;30.83;;
20318;SDS011;10317;47.254;11.314;2022-12-17T08:31:26;58.80;;;31.25;;
20318;SDS011;10317;47.254;11.314;2022-12-17T08:34:10;65.38;;;32.65;;
20318;SDS011;10317;47.254;11.314;2022-12-17T08:36:54;61.05;;;31.20;;
20318;SDS011;10317;47.254;11.314;2022-12-17T08:39:38;57.20;;;31.55;;
20318;SDS011;10317;47.254;11.314;2022-12-17T08:42:22;60.78;;;31.52;;
20318;SDS011;10317;47.254;11.314;2022-12-17T08:45:07;61.03;;;33.28;;
20318;SDS011;10317;47.254;11.314;2022-12-17T08:47:51;58.03;;;31.05;;
20318;SDS011;10317;47.254;11.314;2022-12-17T08:50:35;63.83;;;32.25;;
20318;SDS011;10317;47.254;11.314;2022-12-17T08:53:19;57.90;;;30.80;;
20318;SDS011;10317;47.254;11.314;2022-12-17T08:56:03;55.85;;;29.48;;
20318;SDS011;10317;47.254;11.314;2022-12-17T08:58:48;59.03;;;31.60;;
20318;SDS011;10317;47.254;11.314;2022-12-17T09:01:32;57.65;;;29.80;;
20318;SDS011;10317;47.254;11.314;2022-12-17T09:04:20;65.38;;;33.42;;
20318;SDS011;10317;47.254;11.314;2022-12-17T09:07:05;51.63;;;28.08;;
20318;SDS011;10317;47.254;11.314;2022-12-17T09:09:49;55.47;;;31.02;;
20318;SDS011;10317;47.254;11.314;2022-12-17T09:12:33;54.95;;;30.30;;
20318;SDS011;10317;47.254;11.314;2022-12-17T09:15:17;53.05;;;28.48;;
20318;SDS011;10317;47.254;11.314;2022-12-17T09:18:01;55.88;;;29.77;;
20318;SDS011;10317;47.254;11.314;2022-12-17T09:20:50;58.97;;;30.48;;
20318;SDS011;10317;47.254;11.314;2022-12-17T09:23:38;56.92;;;31.02;;
20318;SDS011;10317;47.254;11.314;2022-12-17T09:26:22;53.20;;;29.50;;
20318;SDS011;10317;47.254;11.314;2022-12-17T09:29:06;57.10;;;28.23;;
20318;SDS011;10317;47.254;11.314;2022-12-17T09:32:01;63.53;;;30.90;;
20318;SDS011;10317;47.254;11.314;2022-12-17T09:34:45;51.40;;;26.45;;
20318;SDS011;10317;47.254;11.314;2022-12-17T09:37:29;52.17;;;28.05;;
20318;SDS011;10317;47.254;11.314;2022-12-17T09:40:20;54.00;;;28.38;;
20318;SDS011;10317;47.254;11.314;2022-12-17T09:43:25;51.40;;;28.15;;
20318;SDS011;10317;47.254;11.314;2022-12-17T09:46:22;53.08;;;27.20;;
20318;SDS011;10317;47.254;11.314;2022-12-17T09:49:26;48.22;;;26.60;;
20318;SDS011;10317;47.254;11.314;2022-12-17T09:58:03;53.88;;;25.83;;
20318;SDS011;10317;47.254;11.314;2022-12-17T10:00:49;44.45;;;25.65;;
20318;SDS011;10317;47.254;11.314;2022-12-17T10:03:35;48.97;;;25.65;;
20318;SDS011;10317;47.254;11.314;2022-12-17T10:06:22;46.65;;;25.85;;
20318;SDS011;10317;47.254;11.314;2022-12-17T10:09:11;46.03;;;25.42;;
20318;SDS011;10317;47.254;11.314;2022-12-17T10:11:58;42.90;;;25.08;;
20318;SDS011;10317;47.254;11.314;2022-12-17T10:14:50;47.80;;;26.52;;
20318;SDS011;10317;47.254;11.314;2022-12-17T10:17:34;47.05;;;24.35;;
20318;SDS011;10317;47.254;11.314;2022-12-17T10:23:28;50.83;;;25.02;;
20318;SDS011;10317;47.254;11.314;2022-12-17T10:26:32;41.08;;;23.60;;
20318;SDS011;10317;47.254;11.314;2022-12-17T10:29:21;45.08;;;24.25;;
20318;SDS011;10317;47.254;11.314;2022-12-17T10:34:57;47.13;;;26.45;;
20318;SDS011;10317;47.254;11.314;2022-12-17T10:37:42;49.50;;;24.67;;
20318;SDS011;10317;47.254;11.314;2022-12-17T10:40:27;46.97;;;25.85;;
20318;SDS011;10317;47.254;11.314;2022-12-17T10:43:47;44.83;;;24.95;;
20318;SDS011;10317;47.254;11.314;2022-12-17T10:46:28;48.05;;;26.25;;
20318;SDS011;10317;47.254;11.314;2022-12-17T10:49:18;43.33;;;24.75;;
20318;SDS011;10317;47.254;11.314;2022-12-17T10:52:05;49.33;;;25.08;;
20318;SDS011;10317;47.254;11.314;2022-12-17T10:54:55;44.95;;;26.13;;
20318;SDS011;10317;47.254;11.314;2022-12-17T10:57:41;46.05;;;25.45;;
20318;SDS011;10317;47.254;11.314;2022-12-17T11:00:28;45.80;;;25.92;;
20318;SDS011;10317;47.254;11.314;2022-12-17T11:03:25;46.83;;;25.20;;
20318;SDS011;10317;47.254;11.314;2022-12-17T11:06:18;45.63;;;27.23;;
20318;SDS011;10317;47.254;11.314;2022-12-17T11:09:33;46.97;;;25.65;;
20318;SDS011;10317;47.254;11.314;2022-12-17T11:12:28;47.42;;;25.77;;
20318;SDS011;10317;47.254;11.314;2022-12-17T11:18:17;45.20;;;24.27;;
20318;SDS011;10317;47.254;11.314;2022-12-17T11:21:07;45.25;;;23.20;;
20318;SDS011;10317;47.254;11.314;2022-12-17T11:23:55;41.00;;;23.17;;
20318;SDS011;10317;47.254;11.314;2022-12-17T11:26:41;44.88;;;23.80;;
20318;SDS011;10317;47.254;11.314;2022-12-17T11:29:29;43.38;;;23.38;;
20318;SDS011;10317;47.254;11.314;2022-12-17T11:35:29;48.33;;;25.60;;
20318;SDS011;10317;47.254;11.314;2022-12-17T11:38:39;43.58;;;25.10;;
20318;SDS011;10317;47.254;11.314;2022-12-17T11:41:52;49.05;;;24.88;;
20318;SDS011;10317;47.254;11.314;2022-12-17T11:44:57;49.75;;;27.08;;
20318;SDS011;10317;47.254;11.314;2022-12-17T11:48:13;50.08;;;26.55;;
20318;SDS011;10317;47.254;11.314;2022-12-17T12:00:07;44.30;;;24.95;;
20318;SDS011;10317;47.254;11.314;2022-12-17T12:05:54;45.58;;;26.10;;
20318;SDS011;10317;47.254;11.314;2022-12-17T12:26:26;33.17;;;17.23;;
20318;SDS011;10317;47.254;11.314;2022-12-17T12:32:38;32.13;;;18.10;;
20318;SDS011;10317;47.254;11.314;2022-12-17T12:35:44;35.55;;;17.85;;
20318;SDS011;10317;47.254;11.314;2022-12-17T12:38:33;29.35;;;16.45;;
20318;SDS011;10317;47.254;11.314;2022-12-17T12:41:28;32.42;;;17.45;;
20318;SDS011;10317;47.254;11.314;2022-12-17T12:54:26;38.42;;;22.33;;
20318;SDS011;10317;47.254;11.314;2022-12-17T13:03:29;39.95;;;22.33;;
20318;SDS011;10317;47.254;11.314;2022-12-17T13:09:18;40.95;;;22.30;;
20318;SDS011;10317;47.254;11.314;2022-12-17T13:11:46;38.90;;;20.95;;
20318;SDS011;10317;47.254;11.314;2022-12-17T13:14:27;40.78;;;21.98;;
20318;SDS011;10317;47.254;11.314;2022-12-17T13:16:54;38.80;;;21.30;;
20318;SDS011;10317;47.254;11.314;2022-12-17T13:21:55;40.17;;;21.42;;
20318;SDS011;10317;47.254;11.314;2022-12-17T13:24:46;37.05;;;20.73;;
20318;SDS011;10317;47.254;11.314;2022-12-17T13:41:31;35.47;;;20.42;;
20318;SDS011;10317;47.254;11.314;2022-12-17T13:46:53;35.08;;;20.63;;
20318;SDS011;10317;47.254;11.314;2022-12-17T13:51:59;32.05;;;19.42;;
20318;SDS011;10317;47.254;11.314;2022-12-17T13:54:29;35.83;;;19.55;;
20318;SDS011;10317;47.254;11.314;2022-12-17T13:59:50;33.17;;;18.73;;
20318;SDS011;10317;47.254;11.314;2022-12-17T14:02:51;33.10;;;19.40;;
20318;SDS011;10317;47.254;11.314;2022-12-17T14:07:57;35.45;;;20.20;;
20318;SDS011;10317;47.254;11.314;2022-12-17T14:10:26;34.60;;;20.83;;
20318;SDS011;10317;47.254;11.314;2022-12-17T14:13:01;32.85;;;19.25;;
20318;SDS011;10317;47.254;11.314;2022-12-17T14:15:34;44.15;;;24.02;;
20318;SDS011;10317;47.254;11.314;2022-12-17T14:18:01;41.53;;;22.23;;
20318;SDS011;10317;47.254;11.314;2022-12-17T14:20:28;35.28;;;20.90;;
20318;SDS011;10317;47.254;11.314;2022-12-17T14:23:03;38.63;;;22.15;;
20318;SDS011;10317;47.254;11.314;2022-12-17T14:25:37;36.95;;;21.42;;
20318;SDS011;10317;47.254;11.314;2022-12-17T14:28:05;37.03;;;20.77;;
20318;SDS011;10317;47.254;11.314;2022-12-17T14:30:51;40.17;;;21.52;;
20318;SDS011;10317;47.254;11.314;2022-12-17T14:33:35;39.90;;;21.77;;
20318;SDS011;10317;47.254;11.314;2022-12-17T14:36:02;37.92;;;21.75;;
20318;SDS011;10317;47.254;11.314;2022-12-17T14:38:31;35.55;;;20.20;;
20318;SDS011;10317;47.254;11.314;2022-12-17T14:41:01;40.38;;;20.38;;
20318;SDS011;10317;47.254;11.314;2022-12-17T14:43:55;35.20;;;19.60;;
20318;SDS011;10317;47.254;11.314;2022-12-17T14:46:22;35.13;;;19.83;;
20318;SDS011;10317;47.254;11.314;2022-12-17T14:48:53;36.03;;;19.65;;
20318;SDS011;10317;47.254;11.314;2022-12-17T14:54:12;32.72;;;18.67;;
20318;SDS011;10317;47.254;11.314;2022-12-17T14:56:47;33.28;;;18.17;;
20318;SDS011;10317;47.254;11.314;2022-12-17T14:59:33;32.65;;;17.85;;
20318;SDS011;10317;47.254;11.314;2022-12-17T15:04:31;32.03;;;17.90;;
20318;SDS011;10317;47.254;11.314;2022-12-17T15:06:59;30.38;;;17.83;;
20318;SDS011;10317;47.254;11.314;2022-12-17T15:09:25;25.13;;;16.17;;
20318;SDS011;10317;47.254;11.314;2022-12-17T15:11:53;32.50;;;17.65;;
20318;SDS011;10317;47.254;11.314;2022-12-17T15:14:30;32.67;;;18.13;;
20318;SDS011;10317;47.254;11.314;2022-12-17T15:17:04;31.55;;;17.75;;
20318;SDS011;10317;47.254;11.314;2022-12-17T15:19:30;32.38;;;17.73;;
20318;SDS011;10317;47.254;11.314;2022-12-17T15:22:05;31.67;;;17.15;;
20318;SDS011;10317;47.254;11.314;2022-12-17T15:24:30;32.92;;;18.50;;
20318;SDS011;10317;47.254;11.314;2022-12-17T15:26:56;29.48;;;17.88;;
20318;SDS011;10317;47.254;11.314;2022-12-17T15:29:22;29.52;;;17.45;;
20318;SDS011;10317;47.254;11.314;2022-12-17T15:31:48;33.03;;;17.70;;
20318;SDS011;10317;47.254;11.314;2022-12-17T15:34:14;31.02;;;17.48;;
20318;SDS011;10317;47.254;11.314;2022-12-17T15:36:40;33.80;;;18.20;;
20318;SDS011;10317;47.254;11.314;2022-12-17T15:39:06;29.00;;;16.73;;
20318;SDS011;10317;47.254;11.314;2022-12-17T15:41:32;28.50;;;16.65;;
20318;SDS011;10317;47.254;11.314;2022-12-17T15:44:30;28.17;;;16.40;;
20318;SDS011;10317;47.254;11.314;2022-12-17T15:46:56;29.05;;;16.65;;
20318;SDS011;10317;47.254;11.314;2022-12-17T15:49:21;25.63;;;15.48;;
20318;SDS011;10317;47.254;11.314;2022-12-17T15:51:47;28.80;;;16.88;;
20318;SDS011;10317;47.254;11.314;2022-12-17T15:54:13;31.27;;;16.70;;
20318;SDS011;10317;47.254;11.314;2022-12-17T15:56:39;30.52;;;17.70;;
20318;SDS011;10317;47.254;11.314;2022-12-17T15:59:07;30.48;;;16.98;;
20318;SDS011;10317;47.254;11.314;2022-12-17T16:01:50;35.55;;;19.27;;
20318;SDS011;10317;47.254;11.314;2022-12-17T16:04:16;31.33;;;17.98;;
20318;SDS011;10317;47.254;11.314;2022-12-17T16:06:42;31.30;;;18.25;;
20318;SDS011;10317;47.254;11.314;2022-12-17T16:09:07;36.83;;;20.70;;
20318;SDS011;10317;47.254;11.314;2022-12-17T16:11:33;37.08;;;18.80;;
20318;SDS011;10317;47.254;11.314;2022-12-17T16:13:59;35.38;;;19.13;;
20318;SDS011;10317;47.254;11.314;2022-12-17T16:16:24;33.55;;;18.88;;
20318;SDS011;10317;47.254;11.314;2022-12-17T16:18:50;34.30;;;18.90;;
20318;SDS011;10317;47.254;11.314;2022-12-17T16:21:16;34.40;;;18.52;;
20318;SDS011;10317;47.254;11.314;2022-12-17T16:23:42;29.65;;;17.30;;
20318;SDS011;10317;47.254;11.314;2022-12-17T16:26:08;29.33;;;16.85;;
20318;SDS011;10317;47.254;11.314;2022-12-17T16:28:35;31.27;;;17.88;;
20318;SDS011;10317;47.254;11.314;2022-12-17T16:31:05;33.13;;;18.38;;
20318;SDS011;10317;47.254;11.314;2022-12-17T16:33:41;30.00;;;19.02;;
20318;SDS011;10317;47.254;11.314;2022-12-17T16:36:07;31.27;;;18.05;;
20318;SDS011;10317;47.254;11.314;2022-12-17T16:38:40;30.55;;;17.73;;
20318;SDS011;10317;47.254;11.314;2022-12-17T16:41:07;31.23;;;17.48;;
20318;SDS011;10317;47.254;11.314;2022-12-17T16:43:33;30.88;;;18.50;;
20318;SDS011;10317;47.254;11.314;2022-12-17T16:56:24;30.48;;;17.77;;
20318;SDS011;10317;47.254;11.314;2022-12-17T16:59:21;30.17;;;17.58;;
20318;SDS011;10317;47.254;11.314;2022-12-17T17:01:58;29.50;;;16.90;;
20318;SDS011;10317;47.254;11.314;2022-12-17T17:04:37;28.13;;;16.98;;
20318;SDS011;10317;47.254;11.314;2022-12-17T17:18:14;30.35;;;16.92;;
20318;SDS011;10317;47.254;11.314;2022-12-17T17:20:41;32.28;;;18.40;;
20318;SDS011;10317;47.254;11.314;2022-12-17T17:23:10;29.95;;;17.15;;
20318;SDS011;10317;47.254;11.314;2022-12-17T17:25:35;27.60;;;16.40;;
20318;SDS011;10317;47.254;11.314;2022-12-17T17:28:01;31.33;;;17.30;;
20318;SDS011;10317;47.254;11.314;2022-12-17T17:30:27;31.88;;;17.38;;
20318;SDS011;10317;47.254;11.314;2022-12-17T17:32:53;32.05;;;17.52;;
20318;SDS011;10317;47.254;11.314;2022-12-17T17:35:18;34.40;;;18.38;;
20318;SDS011;10317;47.254;11.314;2022-12-17T17:37:44;32.15;;;17.35;;
20318;SDS011;10317;47.254;11.314;2022-12-17T17:40:10;33.63;;;18.63;;
20318;SDS011;10317;47.254;11.314;2022-12-17T17:42:36;29.92;;;17.75;;
20318;SDS011;10317;47.254;11.314;2022-12-17T17:45:02;30.88;;;17.60;;
20318;SDS011;10317;47.254;11.314;2022-12-17T17:47:28;32.80;;;18.52;;
20318;SDS011;10317;47.254;11.314;2022-12-17T17:49:55;33.08;;;17.90;;
20318;SDS011;10317;47.254;11.314;2022-12-17T17:52:21;28.95;;;17.23;;
20318;SDS011;10317;47.254;11.314;2022-12-17T17:54:47;29.33;;;17.77;;